createdAt,value
2022-08-05T00:01:21.005Z,101567.02
2022-08-05T00:03:56.894Z,101567.20
2022-08-05T00:06:32.366Z,101560.82
2022-08-05T00:09:01.340Z,101560.33
2022-08-05T00:11:30.311Z,101558.61
2022-08-05T00:14:12.089Z,101553.85
2022-08-05T00:16:52.971Z,101551.05
2022-08-05T00:19:24.633Z,101551.64
2022-08-05T00:21:53.932Z,101549.91
2022-08-05T00:24:24.662Z,101550.41
2022-08-05T00:27:00.524Z,101549.77
2022-08-05T00:29:32.915Z,101549.65
2022-08-05T00:32:12.243Z,101547.05
2022-08-05T00:35:05.558Z,101547.09
2022-08-05T00:37:35.533Z,101548.34
2022-08-05T00:40:26.692Z,101547.20
2022-08-05T00:43:02.524Z,101546.66
2022-08-05T00:45:38.402Z,101548.14
2022-08-05T00:48:09.455Z,101543.75
2022-08-05T00:50:41.381Z,101545.38
2022-08-05T00:54:01.110Z,101541.38
2022-08-05T00:56:01.513Z,101540.22
2022-08-05T00:58:29.733Z,101542.91
2022-08-05T01:00:58.094Z,101544.27
2022-08-05T01:03:30.962Z,101539.79
2022-08-05T01:06:03.969Z,101543.09
2022-08-05T01:08:42.737Z,101538.27
2022-08-05T01:11:36.956Z,101538.30
2022-08-05T01:14:28.135Z,101521.67
2022-08-05T01:17:07.434Z,101536.09
2022-08-05T01:20:03.763Z,101534.96
2022-08-05T01:22:47.293Z,101534.66
2022-08-05T01:25:40.668Z,101535.44
2022-08-05T01:28:24.662Z,101534.36
2022-08-05T01:31:03.043Z,101530.58
2022-08-05T01:34:00.068Z,101530.41
2022-08-05T01:36:34.360Z,101516.63
2022-08-05T01:39:16.096Z,101529.89
2022-08-05T01:42:07.046Z,101523.78
2022-08-05T01:45:04.386Z,101522.86
2022-08-05T01:47:38.724Z,101521.52
2022-08-05T01:50:36.390Z,101518.53
2022-08-05T01:53:57.214Z,101515.93
2022-08-05T01:58:11.649Z,101513.07
2022-08-05T01:59:18.116Z,101514.41
2022-08-05T02:01:48.865Z,101512.34
2022-08-05T02:04:43.145Z,101510.27
2022-08-05T02:07:21.967Z,101513.79
2022-08-05T02:10:17.247Z,101508.33
2022-08-05T02:12:56.489Z,101508.27
2022-08-05T02:15:33.458Z,101482.92
2022-08-05T02:18:34.778Z,101505.61
2022-08-05T02:21:42.915Z,101499.02
2022-08-05T02:24:23.445Z,101493.52
2022-08-05T02:27:10.358Z,101493.46
2022-08-05T02:30:03.590Z,101492.39
2022-08-05T02:32:34.434Z,101490.92
2022-08-05T02:35:13.432Z,101489.30
2022-08-05T02:37:47.597Z,101489.55
2022-08-05T02:40:47.690Z,101487.41
2022-08-05T02:43:18.355Z,101487.85
2022-08-05T02:45:52.453Z,101486.55
2022-08-05T02:48:29.277Z,101484.71
2022-08-05T02:52:01.082Z,101484.23
2022-08-05T02:54:42.148Z,101485.24
2022-08-05T02:58:11.266Z,101486.11
2022-08-05T03:00:35.550Z,101486.29
2022-08-05T03:03:15.170Z,101488.17
2022-08-05T03:06:55.098Z,101491.85
2022-08-05T03:08:36.939Z,101488.89
2022-08-05T03:11:56.273Z,101471.84
2022-08-05T03:14:45.972Z,101483.44
2022-08-05T03:17:14.582Z,101481.38
2022-08-05T03:20:08.826Z,101480.19
2022-08-05T03:22:38.556Z,101483.64
2022-08-05T03:25:32.484Z,101485.73
2022-08-05T03:28:04.673Z,101484.68
2022-08-05T03:30:59.681Z,101481.70
2022-08-05T03:33:32.211Z,101480.29
2022-08-05T03:36:17.618Z,101482.27
2022-08-05T03:39:27.320Z,101479.20
2022-08-05T03:41:57.223Z,101481.80
2022-08-05T03:44:50.449Z,101482.33
2022-08-05T03:47:20.036Z,101480.56
2022-08-05T03:50:13.884Z,101482.99
2022-08-05T03:55:34.284Z,101480.63
2022-08-05T03:56:11.034Z,101482.38
2022-08-05T03:59:16.833Z,101485.09
2022-08-05T04:01:52.078Z,101490.30
2022-08-05T04:04:46.300Z,101487.43
2022-08-05T04:07:15.740Z,101488.91
2022-08-05T04:10:09.221Z,101490.77
2022-08-05T04:13:04.111Z,101488.66
2022-08-05T04:15:36.404Z,101487.48
2022-08-05T04:18:07.978Z,101484.69
2022-08-05T04:21:04.193Z,101487.52
2022-08-05T04:24:06.503Z,101486.77
2022-08-05T04:26:35.231Z,101486.16
2022-08-05T04:29:09.105Z,101484.92
2022-08-05T04:31:38.732Z,101485.02
2022-08-05T04:34:31.728Z,101486.92
2022-08-05T04:36:56.192Z,101484.16
2022-08-05T04:39:24.530Z,101484.03
2022-08-05T04:41:56.000Z,101484.04
2022-08-05T04:44:49.891Z,101479.71
2022-08-05T04:47:18.906Z,101478.41
2022-08-05T04:50:13.837Z,101479.72
2022-08-05T04:53:29.309Z,101477.73
2022-08-05T04:56:33.934Z,101472.76
2022-08-05T04:58:50.294Z,101476.98
2022-08-05T05:02:08.159Z,101471.76
2022-08-05T05:04:32.675Z,101475.48
2022-08-05T05:07:00.833Z,101478.40
2022-08-05T05:09:55.439Z,101480.00
2022-08-05T05:12:27.278Z,101483.16
2022-08-05T05:16:00.549Z,101482.61
2022-08-05T05:18:09.347Z,101483.00
2022-08-05T05:20:39.571Z,101485.91
2022-08-05T05:24:01.778Z,101481.79
2022-08-05T05:26:28.477Z,101484.83
2022-08-05T05:29:02.291Z,101488.45
2022-08-05T05:34:02.813Z,101496.29
2022-08-05T05:36:31.823Z,101495.73
2022-08-05T05:39:00.557Z,101494.59
2022-08-05T05:41:40.169Z,101489.67
2022-08-05T05:44:37.036Z,101492.39
2022-08-05T05:47:04.036Z,101479.96
2022-08-05T05:49:33.472Z,101478.67
2022-08-05T05:52:05.923Z,101472.70
2022-08-05T05:54:50.933Z,101469.14
2022-08-05T05:57:20.468Z,101466.77
2022-08-05T05:59:49.138Z,101468.73
2022-08-05T06:02:32.684Z,101470.56
2022-08-05T06:05:10.633Z,101457.16
2022-08-05T06:07:57.812Z,101466.84
2022-08-05T06:10:36.290Z,101464.80
2022-08-05T06:13:05.487Z,101466.42
2022-08-05T06:16:29.591Z,101470.23
2022-08-05T06:18:31.085Z,101465.27
2022-08-05T06:21:00.755Z,101464.41
2022-08-05T06:23:32.005Z,101460.00
2022-08-05T06:26:21.322Z,101458.21
2022-08-05T06:28:52.169Z,101457.31
2022-08-05T06:31:21.891Z,101461.11
2022-08-05T06:34:07.002Z,101459.27
2022-08-05T06:36:37.387Z,101446.19
2022-08-05T06:39:27.790Z,101460.21
2022-08-05T06:42:03.937Z,101453.27
2022-08-05T06:44:32.782Z,101459.25
2022-08-05T06:47:02.262Z,101457.96
2022-08-05T06:50:01.853Z,101456.61
2022-08-05T06:52:36.701Z,101457.82
2022-08-05T06:55:07.440Z,101456.22
2022-08-05T06:57:57.786Z,101458.38
2022-08-05T07:00:25.635Z,101455.69
2022-08-05T07:02:54.880Z,101452.24
2022-08-05T07:05:37.030Z,101450.44
2022-08-05T07:08:10.941Z,101450.45
2022-08-05T07:10:53.083Z,101445.38
2022-08-05T07:13:57.491Z,101442.99
2022-08-05T07:17:59.045Z,101448.05
2022-08-05T07:20:29.854Z,101446.20
2022-08-05T07:22:28.591Z,101448.80
2022-08-05T07:25:09.507Z,101442.14
2022-08-05T07:27:58.558Z,101443.77
2022-08-05T07:30:33.432Z,101441.05
2022-08-05T07:33:16.621Z,101443.88
2022-08-05T07:36:03.318Z,101445.55
2022-08-05T07:38:43.280Z,101438.79
2022-08-05T07:42:13.824Z,101444.20
2022-08-05T07:44:26.094Z,101428.77
2022-08-05T07:46:54.834Z,101435.15
2022-08-05T07:49:23.134Z,101433.14
2022-08-05T07:51:54.733Z,101433.92
2022-08-05T07:54:30.671Z,101419.41
2022-08-05T07:57:22.835Z,101429.52
2022-08-05T07:59:52.057Z,101428.06
2022-08-05T08:02:30.749Z,101426.77
2022-08-05T08:05:00.549Z,101425.23
2022-08-05T08:07:29.212Z,101427.08
2022-08-05T08:10:08.285Z,101426.22
2022-08-05T08:12:49.563Z,101426.98
2022-08-05T08:15:28.054Z,101425.62
2022-08-05T08:18:13.894Z,101426.09
2022-08-05T08:21:02.179Z,101425.92
2022-08-05T08:24:01.606Z,101420.67
2022-08-05T08:26:29.444Z,101416.70
2022-08-05T08:29:21.814Z,101414.25
2022-08-05T08:31:48.521Z,101408.59
2022-08-05T08:34:18.742Z,101402.35
2022-08-05T08:37:04.880Z,101404.89
2022-08-05T08:39:37.680Z,101387.23
2022-08-05T08:42:34.063Z,101396.66
2022-08-05T08:45:18.249Z,101388.90
2022-08-05T08:48:11.789Z,101407.77
2022-08-05T08:52:01.762Z,101407.83
2022-08-05T08:54:21.136Z,101397.71
2022-08-05T08:56:56.504Z,101402.36
2022-08-05T08:59:33.429Z,101397.76
2022-08-05T09:02:08.541Z,101395.90
2022-08-05T09:04:58.604Z,101387.37
2022-08-05T09:07:28.967Z,101390.38
2022-08-05T09:09:57.616Z,101389.90
2022-08-05T09:12:27.302Z,101369.05
2022-08-05T09:15:04.844Z,101392.60
2022-08-05T09:17:42.518Z,101387.46
2022-08-05T09:20:36.149Z,101394.05
2022-08-05T09:23:05.145Z,101387.78
2022-08-05T09:26:01.997Z,101386.91
2022-08-05T09:28:32.234Z,101380.98
2022-08-05T09:31:22.907Z,101377.42
2022-08-05T09:34:01.286Z,101375.21
2022-08-05T09:36:55.885Z,101374.50
2022-08-05T09:39:45.086Z,101372.37
2022-08-05T09:42:23.232Z,101363.52
2022-08-05T09:45:17.549Z,101356.83
2022-08-05T09:47:55.264Z,101350.14
2022-08-05T09:50:38.934Z,101345.74
2022-08-05T09:53:22.696Z,101342.28
2022-08-05T09:56:11.427Z,101347.51
2022-08-05T09:58:42.070Z,101345.78
2022-08-05T10:01:15.679Z,101343.90
2022-08-05T10:04:03.650Z,101336.25
2022-08-05T10:06:34.234Z,101332.90
2022-08-05T10:09:27.523Z,101327.77
2022-08-05T10:12:30.138Z,101316.44
2022-08-05T10:15:20.609Z,101325.65
2022-08-05T10:18:10.939Z,101319.27
2022-08-05T10:20:51.582Z,101321.46
2022-08-05T10:23:55.591Z,101317.09
2022-08-05T10:26:15.335Z,101314.89
2022-08-05T10:28:46.278Z,101310.60
2022-08-05T10:32:52.564Z,101308.23
2022-08-05T10:34:07.100Z,101308.20
2022-08-05T10:36:38.046Z,101307.30
2022-08-05T10:39:24.283Z,101301.98
2022-08-05T10:42:33.911Z,101295.56
2022-08-05T10:45:21.457Z,101303.09
2022-08-05T10:48:29.731Z,101293.42
2022-08-05T10:51:22.164Z,101275.70
2022-08-05T10:53:51.037Z,101279.20
2022-08-05T10:56:26.149Z,101276.95
2022-08-05T11:00:03.581Z,101274.85
2022-08-05T11:02:38.088Z,101268.62
2022-08-05T11:05:31.556Z,101254.59
2022-08-05T11:08:27.572Z,101269.88
2022-08-05T11:11:44.356Z,101261.70
2022-08-05T11:15:19.170Z,101256.65
2022-08-05T11:17:57.290Z,101256.25
2022-08-05T11:20:44.613Z,101258.23
2022-08-05T11:24:05.570Z,101260.85
2022-08-05T11:26:33.435Z,101250.67
2022-08-05T11:29:36.292Z,101248.45
2022-08-05T11:32:31.676Z,101248.48
2022-08-05T11:36:07.705Z,101252.06
2022-08-05T11:38:45.803Z,101249.42
2022-08-05T11:41:56.478Z,101229.95
2022-08-05T11:44:21.626Z,101239.23
2022-08-05T11:47:11.098Z,101243.20
2022-08-05T11:50:08.202Z,101239.39
2022-08-05T11:52:36.660Z,101243.39
2022-08-05T11:55:31.938Z,101244.58
2022-08-05T11:58:10.480Z,101244.53
2022-08-05T12:00:44.134Z,101247.20
2022-08-05T12:03:29.194Z,101244.28
2022-08-05T12:06:06.261Z,101246.48
2022-08-05T12:08:51.033Z,101235.42
2022-08-05T12:11:39.945Z,101233.93
2022-08-05T12:14:11.187Z,101231.48
2022-08-05T12:16:45.277Z,101237.55
2022-08-05T12:20:16.964Z,101234.31
2022-08-05T12:22:09.407Z,101231.20
2022-08-05T12:24:50.500Z,101229.63
2022-08-05T12:27:32.864Z,101224.83
2022-08-05T12:30:15.441Z,101226.27
2022-08-05T12:32:53.779Z,101223.19
2022-08-05T12:35:37.186Z,101217.35
2022-08-05T12:38:10.192Z,101214.21
2022-08-05T12:41:03.898Z,101211.82
2022-08-05T12:43:33.751Z,101201.32
2022-08-05T12:46:07.486Z,101212.24
2022-08-05T12:48:40.922Z,101211.36
2022-08-05T12:52:12.510Z,101210.92
2022-08-05T12:54:59.427Z,101202.94
2022-08-05T12:58:48.828Z,101195.56
2022-08-05T13:02:05.927Z,101195.77
2022-08-05T13:03:16.162Z,101186.34
2022-08-05T13:05:48.062Z,101192.81
2022-08-05T13:08:19.197Z,101190.49
2022-08-05T13:10:50.921Z,101188.02
2022-08-05T13:14:05.102Z,101186.56
2022-08-05T13:16:17.125Z,101185.42
2022-08-05T13:18:55.154Z,101185.85
2022-08-05T13:21:27.862Z,101182.34
2022-08-05T13:24:09.398Z,101178.67
2022-08-05T13:26:41.746Z,101176.14
2022-08-05T13:29:37.657Z,101163.55
2022-08-05T13:32:06.469Z,101165.19
2022-08-05T13:34:59.942Z,101146.34
2022-08-05T13:37:34.389Z,101171.13
2022-08-05T13:40:14.199Z,101168.87
2022-08-05T13:42:45.391Z,101172.80
2022-08-05T13:45:43.230Z,101168.23
2022-08-05T13:48:57.472Z,101163.17
2022-08-05T13:51:36.435Z,101158.96
2022-08-05T13:54:30.131Z,101162.05
2022-08-05T13:56:59.512Z,101161.53
2022-08-05T13:59:30.819Z,101163.55
2022-08-05T14:02:00.715Z,101159.65
2022-08-05T14:05:15.421Z,101153.77
2022-08-05T14:08:05.726Z,101153.66
2022-08-05T14:11:19.761Z,101146.02
2022-08-05T14:14:14.015Z,101149.83
2022-08-05T14:16:51.551Z,101142.48
2022-08-05T14:19:55.340Z,101137.65
2022-08-05T14:22:25.264Z,101145.00
2022-08-05T14:25:28.211Z,101132.43
2022-08-05T14:27:58.758Z,101148.17
2022-08-05T14:30:52.260Z,101145.58
2022-08-05T14:33:24.735Z,101137.65
2022-08-05T14:35:54.566Z,101138.30
2022-08-05T14:38:32.063Z,101136.98
2022-08-05T14:41:28.139Z,101141.50
2022-08-05T14:44:14.443Z,101141.58
2022-08-05T14:46:49.611Z,101141.27
2022-08-05T14:49:20.761Z,101144.08
2022-08-05T14:51:49.222Z,101142.36
2022-08-05T14:54:52.755Z,101125.61
2022-08-05T14:57:22.689Z,101139.04
2022-08-05T15:00:08.427Z,101138.50
2022-08-05T15:02:38.702Z,101137.51
2022-08-05T15:05:13.304Z,101132.21
2022-08-05T15:08:05.461Z,101134.41
2022-08-05T15:10:30.860Z,101124.86
2022-08-05T15:13:04.161Z,101136.31
2022-08-05T15:15:55.271Z,101135.17
2022-08-05T15:18:21.707Z,101136.71
2022-08-05T15:20:50.034Z,101131.27
2022-08-05T15:23:19.492Z,101132.70
2022-08-05T15:25:52.972Z,101131.91
2022-08-05T15:28:27.620Z,101134.95
2022-08-05T15:30:56.972Z,101136.76
2022-08-05T15:34:05.568Z,101134.54
2022-08-05T15:36:17.537Z,101135.69
2022-08-05T15:41:00.213Z,101136.77
2022-08-05T15:41:58.531Z,101125.83
2022-08-05T15:44:30.297Z,101132.37
2022-08-05T15:47:01.885Z,101135.30
2022-08-05T15:49:55.235Z,101131.65
2022-08-05T15:52:51.575Z,101135.86
2022-08-05T15:55:15.443Z,101135.90
2022-08-05T15:57:45.062Z,101135.67
2022-08-05T16:00:16.856Z,101140.16
2022-08-05T16:02:54.202Z,101138.63
2022-08-05T16:05:23.482Z,101130.64
2022-08-05T16:07:57.053Z,101126.14
2022-08-05T16:10:26.833Z,101125.66
2022-08-05T16:12:56.032Z,101123.50
2022-08-05T16:15:24.693Z,101125.03
2022-08-05T16:18:00.773Z,101121.27
2022-08-05T16:20:32.831Z,101113.43
2022-08-05T16:23:01.127Z,101116.55
2022-08-05T16:25:33.953Z,101114.72
2022-08-05T16:28:09.674Z,101109.67
2022-08-05T16:30:38.829Z,101106.25
2022-08-05T16:33:07.152Z,101102.88
2022-08-05T16:35:42.271Z,101099.27
2022-08-05T16:38:24.633Z,101090.88
2022-08-05T16:41:01.454Z,101087.34
2022-08-05T16:43:35.286Z,101085.39
2022-08-05T16:46:24.683Z,101083.15
2022-08-05T16:48:53.135Z,101083.44
2022-08-05T16:51:24.633Z,101081.41
2022-08-05T16:54:03.089Z,101079.31
2022-08-05T16:56:37.072Z,101072.15
2022-08-05T16:59:10.585Z,101069.20
2022-08-05T17:01:54.348Z,101071.60
2022-08-05T17:04:26.968Z,101075.27
2022-08-05T17:07:00.354Z,101075.80
2022-08-05T17:09:29.765Z,101073.61
2022-08-05T17:11:59.319Z,101071.05
2022-08-05T17:14:37.407Z,101079.52
2022-08-05T17:17:14.643Z,101085.60
2022-08-05T17:19:46.348Z,101085.05
2022-08-05T17:22:18.036Z,101087.88
2022-08-05T17:24:57.449Z,101093.40
2022-08-05T17:27:33.514Z,101097.75
2022-08-05T17:30:11.778Z,101101.52
2022-08-05T17:32:47.268Z,101106.31
2022-08-05T17:35:20.919Z,101108.80
2022-08-05T17:37:49.398Z,101111.02
2022-08-05T17:40:22.325Z,101110.03
2022-08-05T17:42:52.953Z,101117.06
2022-08-05T17:45:29.492Z,101116.84
2022-08-05T17:48:08.146Z,101120.42
2022-08-05T17:50:36.546Z,101120.86
2022-08-05T17:53:05.515Z,101126.88
2022-08-05T17:55:38.001Z,101127.83
2022-08-05T17:58:12.564Z,101132.05
2022-08-05T18:00:47.797Z,101129.86
2022-08-05T18:03:56.033Z,101131.79
2022-08-05T18:06:14.896Z,101135.34
2022-08-05T18:08:52.037Z,101138.73
2022-08-05T18:11:24.793Z,101142.83
2022-08-05T18:14:04.226Z,101141.70
2022-08-05T18:16:35.360Z,101142.04
2022-08-05T18:19:15.471Z,101145.80
2022-08-05T18:22:09.670Z,101145.39
2022-08-05T18:24:32.245Z,101141.94
2022-08-05T18:27:00.436Z,101133.06
2022-08-05T18:29:40.908Z,101135.41
2022-08-05T18:32:12.631Z,101138.12
2022-08-05T18:34:42.985Z,101137.72
2022-08-05T18:37:12.639Z,101133.77
2022-08-05T18:41:51.013Z,101132.09
2022-08-05T18:42:33.337Z,101131.30
2022-08-05T18:45:01.582Z,101137.23
2022-08-05T18:47:31.128Z,101139.00
2022-08-05T18:50:21.340Z,101137.79
2022-08-05T18:53:16.716Z,101142.45
2022-08-05T18:55:47.686Z,101144.14
2022-08-05T18:58:16.301Z,101142.52
2022-08-05T19:00:44.960Z,101141.67
2022-08-05T19:03:16.484Z,101130.53
2022-08-05T19:06:19.153Z,101139.73
2022-08-05T19:08:50.056Z,101141.56
2022-08-05T19:11:19.505Z,101155.17
2022-08-05T19:14:00.626Z,101179.47
2022-08-05T19:16:34.343Z,101198.36
2022-08-05T19:19:15.005Z,101206.20
2022-08-05T19:21:51.449Z,101215.06
2022-08-05T19:24:34.402Z,101220.13
2022-08-05T19:27:05.739Z,101221.42
2022-08-05T19:29:35.943Z,101214.38
2022-08-05T19:32:11.246Z,101221.90
2022-08-05T19:34:41.859Z,101224.89
2022-08-05T19:37:10.705Z,101233.02
2022-08-05T19:39:45.714Z,101235.26
2022-08-05T19:42:35.573Z,101232.59
2022-08-05T19:45:05.650Z,101230.41
2022-08-05T19:47:38.049Z,101235.65
2022-08-05T19:50:07.685Z,101212.56
2022-08-05T19:52:39.040Z,101235.83
2022-08-05T19:56:14.992Z,101230.78
2022-08-05T19:58:19.408Z,101226.52
2022-08-05T20:00:44.863Z,101234.01
2022-08-05T20:03:13.337Z,101224.25
2022-08-05T20:05:50.072Z,101232.58
2022-08-05T20:08:20.470Z,101236.40
2022-08-05T20:10:53.375Z,101235.05
2022-08-05T20:13:30.180Z,101231.98
2022-08-05T20:16:10.535Z,101224.84
2022-08-05T20:18:39.227Z,101230.84
2022-08-05T20:21:08.710Z,101240.64
2022-08-05T20:23:51.678Z,101252.42
2022-08-05T20:26:25.392Z,101245.02
2022-08-05T20:28:56.259Z,101266.50
2022-08-05T20:31:37.632Z,101273.83
2022-08-05T20:34:41.419Z,101285.59
2022-08-05T20:37:18.087Z,101300.45
2022-08-05T20:39:58.266Z,101307.89
2022-08-05T20:42:26.899Z,101305.23
2022-08-05T20:44:56.493Z,101321.81
2022-08-05T20:47:32.286Z,101346.09
2022-08-05T20:50:02.029Z,101390.11
2022-08-05T20:52:31.008Z,101414.42
2022-08-05T20:56:07.854Z,101387.27
2022-08-05T20:57:49.027Z,101337.41
2022-08-05T21:00:41.665Z,101372.38
2022-08-05T21:03:07.934Z,101379.05
2022-08-05T21:05:54.127Z,101364.24
2022-08-05T21:08:41.296Z,101340.71
2022-08-05T21:12:07.086Z,101344.48
2022-08-05T21:14:05.685Z,101330.98
2022-08-05T21:27:25.147Z,101375.32
2022-08-05T21:29:56.545Z,101381.92
2022-08-05T21:32:27.360Z,101387.54
2022-08-05T21:35:08.696Z,101384.50
2022-08-05T21:37:52.658Z,101394.95
2022-08-05T21:40:25.137Z,101389.34
2022-08-05T21:42:54.560Z,101363.67
2022-08-05T21:45:56.198Z,101394.39
2022-08-05T21:48:15.552Z,101391.82
2022-08-05T21:50:53.059Z,101394.58
2022-08-05T21:53:27.679Z,101354.98
2022-08-05T21:56:09.546Z,101401.17
2022-08-05T21:58:56.948Z,101391.82
2022-08-05T22:01:26.764Z,101386.52
2022-08-05T22:03:55.230Z,101399.48
2022-08-05T22:06:35.467Z,101417.58
2022-08-05T22:09:14.706Z,101423.01
2022-08-05T22:12:10.552Z,101426.81
2022-08-05T22:14:41.244Z,101421.19
2022-08-05T22:17:11.345Z,101421.44
2022-08-05T22:19:57.487Z,101442.86
2022-08-05T22:23:17.034Z,101413.36
2022-08-05T22:26:10.353Z,101399.41
2022-08-05T22:28:39.730Z,101392.88
2022-08-05T22:31:08.026Z,101377.00
2022-08-05T22:33:58.605Z,101364.06
2022-08-05T22:36:53.206Z,101346.96
2022-08-05T22:39:21.828Z,101347.49
2022-08-05T22:42:11.717Z,101387.56
2022-08-05T22:44:38.866Z,101369.60
2022-08-05T22:47:07.186Z,101368.56
2022-08-05T22:50:20.672Z,101373.20
2022-08-05T22:52:32.377Z,101376.17
2022-08-05T22:55:04.187Z,101365.63
2022-08-05T22:57:34.060Z,101385.35
2022-08-05T23:00:09.919Z,101390.23
2022-08-05T23:02:46.481Z,101402.43
2022-08-05T23:05:16.649Z,101412.62
2022-08-05T23:07:48.574Z,101415.31
2022-08-05T23:10:20.899Z,101421.30
2022-08-05T23:12:55.245Z,101426.16
2022-08-05T23:15:29.797Z,101425.67
2022-08-05T23:18:11.314Z,101408.82
2022-08-05T23:20:40.251Z,101422.33
2022-08-05T23:23:11.460Z,101420.02
2022-08-05T23:25:52.196Z,101417.84
2022-08-05T23:28:28.599Z,101420.81
2022-08-05T23:31:16.683Z,101421.27
2022-08-05T23:34:03.712Z,101419.38
2022-08-05T23:37:00.083Z,101421.00
2022-08-05T23:39:44.399Z,101434.95
2022-08-05T23:42:47.445Z,101437.90
2022-08-05T23:45:23.768Z,101446.11
2022-08-05T23:48:17.205Z,101451.10
2022-08-05T23:50:47.895Z,101461.78
2022-08-05T23:53:22.246Z,101463.92
2022-08-05T23:55:51.397Z,101470.17
2022-08-05T23:58:31.657Z,101475.69
